createdAt,value
2018-09-13T00:03:02.246Z,55.40
2018-09-13T00:13:05.529Z,55.60
2018-09-13T00:23:09.165Z,56.70
2018-09-13T00:33:12.384Z,58.60
2018-09-13T00:43:15.634Z,59.40
2018-09-13T00:53:18.849Z,58.70
2018-09-13T01:03:22.206Z,61.20
2018-09-13T01:13:25.473Z,63.10
2018-09-13T01:23:28.696Z,61.30
2018-09-13T01:33:31.939Z,62.30
2018-09-13T01:43:35.172Z,61.40
2018-09-13T01:53:38.544Z,62.20
2018-09-13T02:03:41.778Z,62.70
2018-09-13T02:13:45.021Z,63.60
2018-09-13T02:23:48.271Z,64.20
2018-09-13T02:33:51.513Z,64.60
2018-09-13T02:43:54.749Z,64.50
2018-09-13T02:53:58.895Z,64.80
2018-09-13T03:04:02.140Z,65.20
2018-09-13T03:14:05.521Z,65.60
2018-09-13T03:24:08.814Z,65.20
2018-09-13T03:34:12.173Z,66.20
2018-09-13T03:44:15.596Z,66.80
2018-09-13T03:54:18.837Z,66.60
2018-09-13T04:04:22.065Z,66.90
2018-09-13T04:14:25.309Z,67.20
2018-09-13T04:24:28.536Z,67.90
2018-09-13T04:34:31.777Z,67.90
2018-09-13T04:44:34.984Z,67.90
2018-09-13T04:54:38.224Z,68.40
2018-09-13T05:04:41.446Z,68.50
2018-09-13T05:14:44.807Z,68.30
2018-09-13T05:24:48.057Z,68.70
2018-09-13T05:34:51.317Z,68.00
2018-09-13T05:44:54.567Z,68.30
2018-09-13T05:54:57.866Z,68.10
2018-09-13T06:05:01.116Z,67.90
2018-09-13T06:15:04.430Z,67.60
2018-09-13T06:25:07.809Z,67.90
2018-09-13T06:35:11.068Z,67.60
2018-09-13T06:45:14.392Z,67.50
2018-09-13T06:55:17.689Z,66.50
2018-09-13T07:05:20.935Z,66.80
2018-09-13T07:15:24.393Z,66.30
2018-09-13T07:25:27.821Z,66.30
2018-09-13T07:35:31.930Z,65.60
2018-09-13T07:45:35.298Z,64.50
2018-09-13T07:55:39.662Z,64.50
2018-09-13T08:05:42.869Z,64.00
2018-09-13T08:15:46.288Z,63.80
2018-09-13T08:25:49.568Z,63.80
2018-09-13T08:35:52.940Z,63.40
2018-09-13T08:45:56.340Z,63.10
2018-09-13T08:55:59.624Z,61.70
2018-09-13T09:06:03.012Z,61.10
2018-09-13T09:16:06.316Z,61.80
2018-09-13T09:26:09.632Z,60.10
2018-09-13T09:36:13.000Z,61.10
2018-09-13T09:46:16.353Z,60.20
2018-09-13T09:56:19.694Z,60.20
2018-09-13T10:06:23.012Z,60.20
2018-09-13T10:16:31.796Z,59.40
2018-09-13T10:26:40.600Z,59.20
2018-09-13T10:36:49.453Z,59.60
2018-09-13T10:46:58.272Z,58.90
2018-09-13T10:57:17.696Z,58.50
2018-09-13T11:07:21.216Z,58.50
2018-09-13T11:17:25.276Z,57.90
2018-09-13T11:27:28.780Z,57.40
2018-09-13T11:37:32.148Z,56.30
2018-09-13T11:47:35.531Z,55.40
2018-09-13T11:57:38.851Z,54.70
2018-09-13T12:07:42.173Z,54.30
2018-09-13T12:17:45.505Z,54.30
2018-09-13T12:27:48.863Z,54.30
2018-09-13T12:37:52.364Z,55.00
2018-09-13T12:47:55.870Z,54.50
2018-09-13T12:57:59.178Z,54.30
2018-09-13T13:08:02.449Z,54.40
2018-09-13T13:18:05.892Z,54.20
2018-09-13T13:28:09.137Z,54.30
2018-09-13T13:38:12.504Z,54.40
2018-09-13T13:48:15.837Z,55.10
2018-09-13T13:58:19.221Z,54.70
2018-09-13T14:08:22.638Z,54.50
2018-09-13T14:18:25.956Z,55.30
2018-09-13T14:28:29.312Z,55.70
2018-09-13T14:38:32.963Z,56.30
2018-09-13T14:48:36.268Z,56.60
2018-09-13T14:58:39.642Z,56.30
2018-09-13T15:08:42.988Z,56.70
2018-09-13T15:18:46.336Z,56.10
2018-09-13T15:28:49.691Z,55.40
2018-09-13T15:38:53.210Z,54.70
2018-09-13T15:48:56.652Z,55.40
2018-09-13T15:59:00.369Z,56.00
2018-09-13T16:09:04.468Z,55.90
2018-09-13T16:19:08.312Z,56.90
2018-09-13T16:29:11.585Z,57.00
2018-09-13T16:39:24.997Z,57.40
2018-09-13T16:49:28.424Z,57.80
2018-09-13T16:59:32.861Z,58.60
2018-09-13T17:09:36.137Z,59.20
2018-09-13T17:19:39.686Z,62.10
2018-09-13T17:29:43.039Z,61.80
2018-09-13T17:39:46.385Z,62.90
2018-09-13T17:49:49.665Z,63.50
2018-09-13T17:59:53.152Z,65.10
2018-09-13T18:09:56.713Z,67.50
2018-09-13T18:20:00.048Z,69.30
2018-09-13T18:30:03.390Z,70.70
2018-09-13T18:40:06.794Z,71.60
2018-09-13T18:50:10.113Z,71.00
2018-09-13T19:00:13.820Z,71.00
2018-09-13T19:10:17.393Z,70.50
2018-09-13T19:20:21.699Z,70.00
2018-09-13T19:30:25.054Z,70.00
2018-09-13T19:40:28.394Z,70.40
2018-09-13T19:50:33.371Z,70.60
2018-09-13T20:00:36.644Z,70.00
2018-09-13T20:10:39.891Z,70.00
2018-09-13T20:20:43.296Z,71.00
2018-09-13T20:30:46.673Z,70.30
2018-09-13T20:40:50.252Z,70.30
2018-09-13T20:50:59.932Z,70.90
2018-09-13T21:01:04.003Z,70.50
2018-09-13T21:11:07.568Z,70.70
2018-09-13T21:21:10.996Z,70.40
2018-09-13T21:31:14.326Z,71.20
2018-09-13T21:41:17.723Z,71.60
2018-09-13T21:51:21.012Z,70.90
2018-09-13T22:01:24.392Z,70.70
2018-09-13T22:11:28.132Z,70.80
2018-09-13T22:21:31.558Z,70.30
2018-09-13T22:31:35.592Z,68.30
2018-09-13T22:41:39.211Z,66.80
2018-09-13T22:51:42.428Z,67.60
2018-09-13T23:01:45.684Z,67.30
2018-09-13T23:11:49.615Z,66.00
2018-09-13T23:21:52.868Z,65.30
2018-09-13T23:31:56.080Z,65.00
2018-09-13T23:41:59.300Z,65.20
2018-09-13T23:52:02.517Z,65.00
